createdAt,value
2023-03-24T00:08:31.667Z,11.80
2023-03-24T00:18:37.134Z,11.60
2023-03-24T00:28:40.698Z,11.60
2023-03-24T00:38:47.447Z,11.50
2023-03-24T00:48:58.008Z,11.60
2023-03-24T00:59:03.405Z,11.60
2023-03-24T01:09:08.528Z,11.50
2023-03-24T01:19:14.469Z,11.40
2023-03-24T01:29:18.253Z,11.20
2023-03-24T01:39:23.591Z,11.10
2023-03-24T01:49:31.743Z,10.90
2023-03-24T01:59:41.748Z,11.10
2023-03-24T02:09:49.472Z,11.20
2023-03-24T02:20:31.714Z,11.20
2023-03-24T02:31:07.760Z,11.20
2023-03-24T02:41:21.617Z,11.20
2023-03-24T02:51:32.346Z,11.20
2023-03-24T03:01:43.695Z,11.30
2023-03-24T03:12:11.915Z,11.30
2023-03-24T03:22:22.543Z,12.50
2023-03-24T03:32:31.602Z,11.20
2023-03-24T03:42:37.251Z,11.10
2023-03-24T03:52:44.791Z,11.20
2023-03-24T04:03:08.654Z,11.30
2023-03-24T04:13:25.815Z,11.30
2023-03-24T04:24:00.339Z,11.30
2023-03-24T04:34:12.294Z,11.30
2023-03-24T04:44:22.811Z,11.20
2023-03-24T04:54:55.801Z,11.10
2023-03-24T05:05:01.638Z,11.10
2023-03-24T05:15:12.868Z,11.00
2023-03-24T05:25:20.520Z,10.90
2023-03-24T05:35:24.838Z,11.00
2023-03-24T05:45:30.642Z,11.00
2023-03-24T05:55:37.747Z,11.10
2023-03-24T06:05:57.174Z,11.20
2023-03-24T06:16:03.724Z,11.30
2023-03-24T06:26:19.283Z,11.50
2023-03-24T06:36:29.946Z,11.60
2023-03-24T06:46:35.893Z,11.80
2023-03-24T06:56:40.260Z,11.80
2023-03-24T07:07:04.672Z,12.20
2023-03-24T07:17:11.314Z,13.10
2023-03-24T07:27:29.435Z,14.80
2023-03-24T07:37:33.234Z,16.20
2023-03-24T07:47:38.870Z,16.20
2023-03-24T07:57:43.352Z,16.50
2023-03-24T08:07:53.619Z,17.50
2023-03-24T08:17:57.684Z,18.70
2023-03-24T08:28:02.804Z,19.50
2023-03-24T08:38:09.275Z,20.80
2023-03-24T08:48:14.677Z,22.60
2023-03-24T08:58:23.157Z,23.50
2023-03-24T09:08:28.032Z,27.00
2023-03-24T09:18:31.807Z,27.80
2023-03-24T09:28:37.006Z,26.60
2023-03-24T09:38:40.509Z,27.80
2023-03-24T09:48:51.065Z,33.40
2023-03-24T09:59:05.444Z,35.20
2023-03-24T10:09:24.682Z,38.30
2023-03-24T10:19:41.750Z,41.30
2023-03-24T10:29:51.023Z,42.30
2023-03-24T10:39:54.594Z,42.70
2023-03-24T10:50:12.324Z,43.10
2023-03-24T11:00:24.688Z,43.10
2023-03-24T11:10:30.271Z,43.20
2023-03-24T11:20:37.608Z,41.20
2023-03-24T11:30:51.232Z,42.70
2023-03-24T11:40:58.359Z,41.70
2023-03-24T11:51:05.971Z,39.90
2023-03-24T12:01:18.028Z,37.20
2023-03-24T12:11:34.446Z,34.20
2023-03-24T12:21:53.170Z,32.70
2023-03-24T12:32:34.717Z,29.60
2023-03-24T12:42:42.536Z,26.50
2023-03-24T12:53:08.410Z,25.00
2023-03-24T13:03:17.985Z,24.30
2023-03-24T13:13:26.457Z,24.50
2023-03-24T13:23:45.520Z,24.40
2023-03-24T13:33:51.689Z,23.00
2023-03-24T13:44:01.507Z,22.10
2023-03-24T13:54:14.892Z,21.50
2023-03-24T14:04:30.326Z,21.30
2023-03-24T14:14:38.045Z,20.70
2023-03-24T14:24:44.240Z,20.30
2023-03-24T14:34:58.913Z,19.70
2023-03-24T14:45:03.589Z,19.10
2023-03-24T14:55:12.418Z,18.90
2023-03-24T15:05:26.504Z,18.80
2023-03-24T15:15:36.028Z,18.90
2023-03-24T15:25:43.177Z,18.80
2023-03-24T15:35:48.326Z,18.50
2023-03-24T15:46:08.846Z,18.40
2023-03-24T15:56:21.968Z,18.10
2023-03-24T16:06:31.128Z,17.80
2023-03-24T16:16:40.009Z,17.50
2023-03-24T16:26:43.561Z,17.30
2023-03-24T16:36:48.645Z,17.10
2023-03-24T16:46:54.348Z,17.00
2023-03-24T16:56:59.429Z,16.80
2023-03-24T17:07:03.299Z,16.60
2023-03-24T17:17:12.444Z,16.50
2023-03-24T17:27:21.227Z,16.20
2023-03-24T17:37:28.381Z,15.90
2023-03-24T17:47:32.296Z,15.80
2023-03-24T17:57:37.396Z,15.60
2023-03-24T18:07:41.709Z,15.30
2023-03-24T18:17:47.118Z,15.00
2023-03-24T18:27:50.940Z,14.70
2023-03-24T18:37:56.858Z,14.40
2023-03-24T18:48:01.530Z,14.20
2023-03-24T18:58:09.640Z,13.70
2023-03-24T19:08:15.132Z,13.30
2023-03-24T19:18:20.158Z,13.00
2023-03-24T19:28:24.449Z,12.90
2023-03-24T19:38:29.693Z,12.80
2023-03-24T19:48:33.736Z,12.70
2023-03-24T19:58:39.946Z,12.60
2023-03-24T20:08:43.994Z,12.40
2023-03-24T20:18:49.192Z,12.30
2023-03-24T20:28:53.929Z,12.40
2023-03-24T20:39:02.019Z,12.40
2023-03-24T20:49:06.449Z,12.40
2023-03-24T20:59:13.959Z,12.30
2023-03-24T21:09:17.896Z,12.40
2023-03-24T21:19:24.387Z,12.40
2023-03-24T21:29:27.953Z,12.30
2023-03-24T21:39:33.010Z,12.10
2023-03-24T21:49:36.734Z,11.90
2023-03-24T21:59:42.063Z,11.60
2023-03-24T22:09:45.897Z,11.30
2023-03-24T22:19:50.930Z,11.30
2023-03-24T22:29:54.567Z,11.30
2023-03-24T22:39:59.729Z,11.40
2023-03-24T23:00:51.936Z,10.80
2023-03-24T23:10:55.845Z,10.30
2023-03-24T23:21:10.009Z,9.80
2023-03-24T23:31:14.637Z,9.30
2023-03-24T23:41:20.459Z,9.10
2023-03-24T23:51:23.966Z,8.80
